Time,TemperatureF,DewpointF,PressureIn,WindDirection,WindDirectionDegrees,WindSpeedMPH,WindSpeedGustMPH,Humidity,HourlyPrecipIn,Conditions,Clouds,dailyrainin,SolarRadiationWatts/m^2,SoftwareType,DateUTC
2013-03-02 00:00:00,27.9,26.7,29.93,WSW,250,0.0,0.0,95,0.00,RA,,0.00,0.0,WeatherDisplay:10.37,2013-03-02 09:00:00,
2013-03-02 00:05:00,27.8,26.6,29.93,WSW,250,0.0,0.0,95,0.00,RA,,0.00,0.0,WeatherDisplay:10.37,2013-03-02 09:05:00,
2013-03-02 00:10:00,27.6,26.4,29.94,WSW,250,0.0,0.0,95,0.00,OVC,,0.00,0.0,WeatherDisplay:10.37,2013-03-02 09:10:00,
2013-03-02 00:15:00,27.5,26.3,29.94,WSW,250,0.0,0.0,95,0.00,OVC,,0.00,0.0,WeatherDisplay:10.37,2013-03-02 09:15:00,
2013-03-02 00:20:00,27.5,26.3,29.94,WSW,250,0.0,0.0,95,0.00,OVC,,0.00,0.0,WeatherDisplay:10.37,2013-03-02 09:20:00,
2013-03-02 00:25:00,27.5,26.5,29.94,WSW,250,0.0,0.0,96,0.00,OVC,,0.00,0.0,WeatherDisplay:10.37,2013-03-02 09:25:00,
2013-03-02 00:30:00,27.5,26.3,29.94,WSW,250,0.0,0.0,95,0.00,OVC,,0.00,0.0,WeatherDisplay:10.37,2013-03-02 09:30:00,
2013-03-02 00:35:00,27.4,26.2,29.94,WSW,250,0.0,0.0,95,0.00,OVC,,0.00,0.0,WeatherDisplay:10.37,2013-03-02 09:35:00,
2013-03-02 00:40:00,27.4,26.4,29.94,WSW,250,0.0,0.0,96,0.00,OVC,,0.00,0.0,WeatherDisplay:10.37,2013-03-02 09:40:00,
2013-03-02 00:45:00,27.5,26.5,29.95,WSW,250,0.0,0.0,96,0.00,OVC,,0.00,0.0,WeatherDisplay:10.37,2013-03-02 09:45:00,
2013-03-02 00:50:00,27.5,26.5,29.95,WSW,250,0.0,0.0,96,0.00,OVC,,0.00,0.0,WeatherDisplay:10.37,2013-03-02 09:50:00,
2013-03-02 00:55:00,27.5,26.5,29.95,WSW,250,0.0,0.0,96,0.00,OVC,,0.00,0.0,WeatherDisplay:10.37,2013-03-02 09:55:00,
2013-03-02 01:00:00,27.5,26.5,29.95,WSW,250,0.0,0.0,96,0.00,OVC,,0.00,0.0,WeatherDisplay:10.37,2013-03-02 10:00:00,
2013-03-02 01:05:00,27.5,26.5,29.95,WSW,250,0.0,0.0,96,0.00,OVC,,0.00,0.0,WeatherDisplay:10.37,2013-03-02 10:05:00,
2013-03-02 01:07:00,27.5,26.5,29.95,WSW,250,0.0,0.0,96,0.00,OVC,,0.00,0.0,WeatherDisplay:10.37,2013-03-02 10:07:00,
2013-03-02 01:12:00,27.5,26.5,29.96,WSW,250,0.0,0.0,96,0.00,OVC,,0.00,0.0,WeatherDisplay:10.37,2013-03-02 10:12:00,
2013-03-02 01:17:00,27.5,26.5,29.96,WSW,250,0.0,0.0,96,0.00,OVC,,0.00,0.0,WeatherDisplay:10.37,2013-03-02 10:17:00,
2013-03-02 01:22:00,27.5,26.5,29.96,WSW,250,0.0,0.0,96,0.00,OVC,,0.00,0.0,WeatherDisplay:10.37,2013-03-02 10:22:00,
2013-03-02 01:27:00,27.5,26.5,29.95,WSW,250,0.0,0.0,96,0.00,OVC,,0.00,0.0,WeatherDisplay:10.37,2013-03-02 10:27:00,
2013-03-02 01:32:00,27.4,26.4,29.95,WSW,250,0.0,0.0,96,0.00,OVC,,0.00,0.0,WeatherDisplay:10.37,2013-03-02 10:32:00,
2013-03-02 01:35:00,27.4,26.4,29.95,WSW,250,0.0,0.0,96,0.00,OVC,,0.00,0.0,WeatherDisplay:10.37,2013-03-02 10:35:00,
2013-03-02 01:40:00,27.2,26.0,29.96,WSW,250,0.0,0.0,95,0.00,OVC,,0.00,0.0,WeatherDisplay:10.37,2013-03-02 10:40:00,
2013-03-02 01:45:00,27.1,25.9,29.96,WSW,250,0.0,0.0,95,0.00,OVC,,0.00,0.0,WeatherDisplay:10.37,2013-03-02 10:45:00,
2013-03-02 01:50:00,26.9,25.7,29.95,WSW,250,0.0,0.0,95,0.00,OVC,,0.00,0.0,WeatherDisplay:10.37,2013-03-02 10:50:00,
2013-03-02 01:55:00,26.6,25.4,29.96,WSW,250,0.0,0.0,95,0.00,OVC,,0.00,0.0,WeatherDisplay:10.37,2013-03-02 10:55:00,
2013-03-02 02:00:00,26.4,25.2,29.96,WSW,250,0.0,0.0,95,0.00,OVC,,0.00,0.0,WeatherDisplay:10.37,2013-03-02 11:00:00,
2013-03-02 02:05:00,26.1,24.6,29.96,WSW,250,0.0,0.0,94,0.00,OVC,,0.00,0.0,WeatherDisplay:10.37,2013-03-02 11:05:00,
2013-03-02 02:10:00,25.8,24.3,29.96,WSW,250,0.0,0.0,94,0.00,OVC,,0.00,0.0,WeatherDisplay:10.37,2013-03-02 11:10:00,
2013-03-02 02:15:00,25.4,23.9,29.96,WSW,250,0.0,0.0,94,0.00,OVC,,0.00,0.0,WeatherDisplay:10.37,2013-03-02 11:15:00,
2013-03-02 02:20:00,25.1,23.6,29.96,WSW,250,0.0,0.0,94,0.00,OVC,,0.00,0.0,WeatherDisplay:10.37,2013-03-02 11:20:00,
2013-03-02 02:25:00,24.8,23.1,29.96,WSW,250,0.0,0.0,93,0.00,OVC,,0.00,0.0,WeatherDisplay:10.37,2013-03-02 11:25:00,
2013-03-02 02:30:00,24.4,22.7,29.96,WSW,250,0.0,0.0,93,0.00,OVC,,0.00,0.0,WeatherDisplay:10.37,2013-03-02 11:30:00,
2013-03-02 02:36:00,24.1,22.4,29.97,WSW,250,0.0,0.0,93,0.00,OVC,,0.00,0.0,WeatherDisplay:10.37,2013-03-02 11:36:00,
2013-03-02 02:41:00,23.8,22.3,29.97,WSW,250,0.0,0.0,94,0.00,OVC,,0.00,0.0,WeatherDisplay:10.37,2013-03-02 11:41:00,
2013-03-02 02:46:00,23.7,22.2,29.97,WSW,250,0.0,0.0,94,0.00,OVC,,0.00,0.0,WeatherDisplay:10.37,2013-03-02 11:46:00,
2013-03-02 02:51:00,23.4,21.9,29.97,WSW,250,0.0,0.0,94,0.00,OVC,,0.00,0.0,WeatherDisplay:10.37,2013-03-02 11:51:00,
2013-03-02 02:56:00,23.2,21.5,29.97,WSW,250,0.0,0.0,93,0.00,OVC,,0.00,0.0,WeatherDisplay:10.37,2013-03-02 11:56:00,
2013-03-02 03:01:00,22.9,21.2,29.97,WSW,250,0.0,0.0,93,0.00,OVC,,0.00,0.0,WeatherDisplay:10.37,2013-03-02 12:01:00,
2013-03-02 03:06:00,22.6,20.9,29.97,WSW,250,0.0,0.0,93,0.00,OVC,,0.00,0.0,WeatherDisplay:10.37,2013-03-02 12:06:00,
2013-03-02 03:11:00,22.4,20.7,29.98,WSW,250,0.0,0.0,93,0.00,OVC,,0.00,0.0,WeatherDisplay:10.37,2013-03-02 12:11:00,
2013-03-02 03:16:00,22.1,20.4,29.98,WSW,250,0.0,0.0,93,0.00,OVC,,0.00,0.0,WeatherDisplay:10.37,2013-03-02 12:16:00,
2013-03-02 03:21:00,22.0,20.3,29.98,WSW,250,0.0,0.0,93,0.00,OVC,,0.00,0.0,WeatherDisplay:10.37,2013-03-02 12:21:00,
2013-03-02 03:26:00,21.7,20.0,29.97,WSW,250,0.0,0.0,93,0.00,OVC,,0.00,0.0,WeatherDisplay:10.37,2013-03-02 12:26:00,
2013-03-02 03:31:00,21.6,19.9,29.97,WSW,250,0.0,0.0,93,0.00,,,0.00,0.0,WeatherDisplay:10.37,2013-03-02 12:31:00,
2013-03-02 03:36:00,21.5,20.0,29.98,WSW,250,0.0,0.0,94,0.00,,,0.00,0.0,WeatherDisplay:10.37,2013-03-02 12:36:00,
2013-03-02 03:41:00,21.4,19.7,29.98,WSW,250,0.0,0.0,93,0.00,,,0.00,0.0,WeatherDisplay:10.37,2013-03-02 12:41:00,
2013-03-02 03:46:00,21.3,19.6,29.97,WSW,250,0.0,0.0,93,0.00,,,0.00,0.0,WeatherDisplay:10.37,2013-03-02 12:46:00,
2013-03-02 03:51:00,21.0,19.3,29.97,WSW,250,0.0,0.0,93,0.00,,,0.00,0.0,WeatherDisplay:10.37,2013-03-02 12:51:00,
2013-03-02 03:56:00,20.8,19.1,29.97,WSW,250,0.0,0.0,93,0.00,,,0.00,0.0,WeatherDisplay:10.37,2013-03-02 12:56:00,
2013-03-02 04:01:00,20.6,18.9,29.97,WSW,250,0.0,0.0,93,0.00,,,0.00,0.0,WeatherDisplay:10.37,2013-03-02 13:01:00,
2013-03-02 04:06:00,20.3,18.6,29.97,WSW,250,1.1,0.0,93,0.00,,,0.00,0.0,WeatherDisplay:10.37,2013-03-02 13:06:00,
2013-03-02 04:11:00,20.0,18.1,29.97,WSW,250,0.0,0.0,92,0.00,,,0.00,0.0,WeatherDisplay:10.37,2013-03-02 13:11:00,
2013-03-02 04:16:00,19.7,17.8,29.97,WSW,250,0.0,0.0,92,0.00,,,0.00,0.0,WeatherDisplay:10.37,2013-03-02 13:16:00,
2013-03-02 04:21:00,19.5,17.6,29.96,WSW,250,0.0,0.0,92,0.00,,,0.00,0.0,WeatherDisplay:10.37,2013-03-02 13:21:00,
2013-03-02 04:26:00,19.2,17.3,29.96,WSW,250,0.0,0.0,92,0.00,,,0.00,0.0,WeatherDisplay:10.37,2013-03-02 13:26:00,
2013-03-02 04:31:00,19.0,17.1,29.96,WSW,250,0.0,0.0,92,0.00,CLR,,0.00,0.0,WeatherDisplay:10.37,2013-03-02 13:31:00,
2013-03-02 04:36:00,18.8,16.9,29.97,WSW,250,0.0,0.0,92,0.00,CLR,,0.00,0.0,WeatherDisplay:10.37,2013-03-02 13:36:00,
2013-03-02 04:41:00,18.6,16.7,29.97,WSW,250,0.0,0.0,92,0.00,CLR,,0.00,0.0,WeatherDisplay:10.37,2013-03-02 13:41:00,
2013-03-02 04:46:00,18.5,16.6,29.97,WSW,250,0.0,0.0,92,0.00,CLR,,0.00,0.0,WeatherDisplay:10.37,2013-03-02 13:46:00,
2013-03-02 04:51:00,18.4,16.7,29.97,WSW,250,0.0,0.0,93,0.00,CLR,,0.00,0.0,WeatherDisplay:10.37,2013-03-02 13:51:00,
2013-03-02 04:56:00,18.3,16.4,29.97,WSW,250,0.0,0.0,92,0.00,CLR,,0.00,0.0,WeatherDisplay:10.37,2013-03-02 13:56:00,
2013-03-02 05:01:00,18.2,16.3,29.97,WSW,250,0.0,0.0,92,0.00,SCT,,0.00,0.0,WeatherDisplay:10.37,2013-03-02 14:01:00,
2013-03-02 05:06:00,18.1,16.4,29.97,WSW,250,0.0,0.0,93,0.00,SCT,,0.00,0.0,WeatherDisplay:10.37,2013-03-02 14:06:00,
2013-03-02 05:11:00,18.3,16.6,29.97,WSW,250,0.0,0.0,93,0.00,SCT,,0.00,0.0,WeatherDisplay:10.37,2013-03-02 14:11:00,
2013-03-02 05:16:00,18.4,17.0,29.97,WSW,250,0.0,0.0,94,0.00,SCT,,0.00,0.0,WeatherDisplay:10.37,2013-03-02 14:16:00,
2013-03-02 05:21:00,18.6,16.9,29.97,WSW,250,0.0,0.0,93,0.00,SCT,,0.00,0.0,WeatherDisplay:10.37,2013-03-02 14:21:00,
2013-03-02 05:26:00,18.6,16.9,29.97,WSW,250,0.0,0.0,93,0.00,SCT,,0.00,0.0,WeatherDisplay:10.37,2013-03-02 14:26:00,
2013-03-02 05:31:00,18.7,17.3,29.97,WSW,250,0.0,0.0,94,0.00,SCT,,0.00,0.0,WeatherDisplay:10.37,2013-03-02 14:31:00,
2013-03-02 05:36:00,18.9,17.5,29.97,WSW,250,0.0,0.0,94,0.00,SCT,,0.00,0.0,WeatherDisplay:10.37,2013-03-02 14:36:00,
2013-03-02 05:41:00,19.0,17.6,29.98,WSW,250,0.0,0.0,94,0.00,SCT,,0.00,0.0,WeatherDisplay:10.37,2013-03-02 14:41:00,
2013-03-02 05:46:00,19.4,18.2,29.98,WSW,250,0.0,0.0,95,0.00,SCT,,0.00,0.0,WeatherDisplay:10.37,2013-03-02 14:46:00,
2013-03-02 05:51:00,19.6,18.4,29.98,WSW,250,0.0,0.0,95,0.00,SCT,,0.00,0.0,WeatherDisplay:10.37,2013-03-02 14:51:00,
2013-03-02 05:56:00,19.8,18.6,29.98,WSW,250,0.0,0.0,95,0.00,SCT,,0.00,0.0,WeatherDisplay:10.37,2013-03-02 14:56:00,
2013-03-02 06:01:00,20.0,18.8,29.98,WSW,250,0.0,0.0,95,0.00,SCT,,0.00,0.0,WeatherDisplay:10.37,2013-03-02 15:01:00,
2013-03-02 06:06:00,20.2,19.0,29.98,WSW,250,0.0,0.0,95,0.00,SCT,,0.00,0.0,WeatherDisplay:10.37,2013-03-02 15:06:00,
2013-03-02 06:11:00,20.4,19.2,29.98,WSW,250,0.0,0.0,95,0.00,SCT,,0.00,0.0,WeatherDisplay:10.37,2013-03-02 15:11:00,
2013-03-02 06:16:00,20.6,19.4,29.98,WSW,250,0.0,0.0,95,0.00,OVC,,0.00,0.0,WeatherDisplay:10.37,2013-03-02 15:16:00,
2013-03-02 06:21:00,20.8,19.6,29.98,WSW,250,0.0,0.0,95,0.00,OVC,,0.00,0.0,WeatherDisplay:10.37,2013-03-02 15:21:00,
2013-03-02 06:26:00,21.0,19.8,29.98,WSW,250,0.0,0.0,95,0.00,OVC,,0.00,0.0,WeatherDisplay:10.37,2013-03-02 15:26:00,
2013-03-02 06:31:00,21.2,20.0,29.98,WSW,250,0.0,0.0,95,0.00,OVC,,0.00,0.0,WeatherDisplay:10.37,2013-03-02 15:31:00,
2013-03-02 06:36:00,21.3,20.1,29.98,WSW,250,0.0,0.0,95,0.00,OVC,,0.00,0.0,WeatherDisplay:10.37,2013-03-02 15:36:00,
2013-03-02 06:41:00,21.5,20.3,29.98,WSW,250,0.0,0.0,95,0.00,OVC,,0.00,0.0,WeatherDisplay:10.37,2013-03-02 15:41:00,
2013-03-02 06:46:00,21.5,20.3,29.98,WSW,250,0.0,0.0,95,0.00,OVC,,0.00,0.0,WeatherDisplay:10.37,2013-03-02 15:46:00,
2013-03-02 06:51:00,21.6,20.4,29.98,WSW,250,0.0,0.0,95,0.00,OVC,,0.00,0.0,WeatherDisplay:10.37,2013-03-02 15:51:00,
2013-03-02 06:56:00,21.7,20.5,29.98,WSW,250,0.0,0.0,95,0.00,OVC,,0.00,0.0,WeatherDisplay:10.37,2013-03-02 15:56:00,
2013-03-02 07:01:00,21.7,20.5,29.98,WSW,250,0.0,0.0,95,0.00,OVC,,0.00,0.0,WeatherDisplay:10.37,2013-03-02 16:01:00,
2013-03-02 07:06:00,21.8,20.6,29.98,WSW,250,0.0,0.0,95,0.00,OVC,,0.00,0.0,WeatherDisplay:10.37,2013-03-02 16:06:00,
2013-03-02 07:11:00,21.8,20.6,29.98,WSW,250,0.0,0.0,95,0.00,OVC,,0.00,0.0,WeatherDisplay:10.37,2013-03-02 16:11:00,
2013-03-02 07:16:00,21.8,20.6,29.98,WSW,250,0.0,0.0,95,0.00,OVC,,0.00,0.0,WeatherDisplay:10.37,2013-03-02 16:16:00,
2013-03-02 07:21:00,21.8,20.3,29.98,WSW,250,0.0,0.0,94,0.00,OVC,,0.00,0.0,WeatherDisplay:10.37,2013-03-02 16:21:00,
2013-03-02 07:26:00,21.8,20.3,29.98,WSW,250,0.0,0.0,94,0.00,OVC,,0.00,0.0,WeatherDisplay:10.37,2013-03-02 16:26:00,
2013-03-02 07:31:00,21.8,20.3,29.98,WSW,250,0.0,0.0,94,0.00,OVC,,0.00,0.0,WeatherDisplay:10.37,2013-03-02 16:31:00,
2013-03-02 07:36:00,21.6,20.1,29.98,WSW,250,0.0,0.0,94,0.00,OVC,,0.00,0.0,WeatherDisplay:10.37,2013-03-02 16:36:00,
2013-03-02 07:41:00,21.5,19.8,29.98,WSW,250,0.0,0.0,93,0.00,OVC,,0.00,0.0,WeatherDisplay:10.37,2013-03-02 16:41:00,
2013-03-02 07:46:00,21.2,19.5,29.98,WSW,250,0.0,0.0,93,0.00,OVC,,0.00,0.0,WeatherDisplay:10.37,2013-03-02 16:46:00,
2013-03-02 07:51:00,21.1,19.4,29.98,East,96,1.1,1.1,93,0.00,OVC,,0.00,0.0,WeatherDisplay:10.37,2013-03-02 16:51:00,
2013-03-02 07:56:00,21.1,19.6,29.98,East,85,0.0,0.0,94,0.00,OVC,,0.00,0.0,WeatherDisplay:10.37,2013-03-02 16:56:00,
2013-03-02 08:01:00,21.2,19.7,29.98,East,85,1.0,1.0,94,0.00,OVC,,0.00,0.0,WeatherDisplay:10.37,2013-03-02 17:01:00,
2013-03-02 08:06:00,21.2,19.7,29.99,East,85,1.1,1.1,94,0.00,OVC,,0.00,0.0,WeatherDisplay:10.37,2013-03-02 17:06:00,
2013-03-02 08:11:00,21.2,19.7,29.99,East,85,0.0,0.0,94,0.00,OVC,,0.00,5.0,WeatherDisplay:10.37,2013-03-02 17:11:00,
2013-03-02 08:16:00,21.2,19.7,29.99,East,85,1.1,1.1,94,0.00,OVC,,0.00,5.0,WeatherDisplay:10.37,2013-03-02 17:16:00,
2013-03-02 08:21:00,21.4,20.2,29.99,East,85,2.3,2.3,95,0.00,OVC,,0.00,7.0,WeatherDisplay:10.37,2013-03-02 17:21:00,
2013-03-02 08:26:00,21.6,20.4,29.99,East,85,0.0,0.1,95,0.00,OVC,,0.00,9.0,WeatherDisplay:10.37,2013-03-02 17:26:00,
2013-03-02 08:31:00,21.7,20.5,29.99,East,85,2.3,2.3,95,0.00,OVC,,0.00,11.0,WeatherDisplay:10.37,2013-03-02 17:31:00,
2013-03-02 08:36:00,21.8,20.6,29.99,East,85,1.1,1.1,95,0.00,OVC,,0.00,12.0,WeatherDisplay:10.37,2013-03-02 17:36:00,
2013-03-02 08:41:00,22.2,21.0,29.99,East,84,2.3,2.3,95,0.00,OVC,,0.00,14.0,WeatherDisplay:10.37,2013-03-02 17:41:00,
2013-03-02 08:46:00,22.6,21.4,29.99,East,82,2.3,2.3,95,0.00,OVC,,0.00,16.0,WeatherDisplay:10.37,2013-03-02 17:46:00,
2013-03-02 08:51:00,22.8,21.6,29.99,East,84,2.3,2.3,95,0.00,OVC,,0.00,21.0,WeatherDisplay:10.37,2013-03-02 17:51:00,
2013-03-02 08:56:00,22.9,21.7,29.99,ENE,77,3.5,3.5,95,0.00,OVC,,0.00,26.0,WeatherDisplay:10.37,2013-03-02 17:56:00,
2013-03-02 09:01:00,23.2,22.0,29.99,ENE,78,3.5,3.5,95,0.00,OVC,,0.00,37.0,WeatherDisplay:10.37,2013-03-02 18:01:00,
2013-03-02 09:06:00,23.5,22.3,29.99,East,92,2.3,2.3,95,0.00,OVC,,0.00,35.0,WeatherDisplay:10.37,2013-03-02 18:06:00,
2013-03-02 09:11:00,23.8,22.8,29.99,ENE,78,2.3,2.3,96,0.00,OVC,,0.00,39.0,WeatherDisplay:10.37,2013-03-02 18:11:00,
2013-03-02 09:16:00,24.2,23.2,29.99,East,92,3.0,3.0,96,0.00,OVC,,0.00,44.0,WeatherDisplay:10.37,2013-03-02 18:16:00,
2013-03-02 09:21:00,24.5,23.5,29.99,ENE,76,2.3,2.3,96,0.00,OVC,,0.00,47.0,WeatherDisplay:10.37,2013-03-02 18:21:00,
2013-03-02 09:26:00,24.7,23.7,29.99,ENE,73,2.3,2.3,96,0.00,OVC,,0.00,44.0,WeatherDisplay:10.37,2013-03-02 18:26:00,
2013-03-02 09:31:00,24.8,23.8,29.99,ENE,78,2.3,2.3,96,0.00,OVC,,0.00,44.0,WeatherDisplay:10.37,2013-03-02 18:31:00,
2013-03-02 09:36:00,24.9,23.9,29.99,ENE,75,2.3,2.3,96,0.00,OVC,,0.00,47.0,WeatherDisplay:10.37,2013-03-02 18:36:00,
2013-03-02 09:41:00,25.0,23.8,29.99,East,80,1.1,1.1,95,0.00,OVC,,0.00,46.0,WeatherDisplay:10.37,2013-03-02 18:41:00,
2013-03-02 09:46:00,25.1,23.9,29.99,East,80,2.3,2.3,95,0.00,OVC,,0.00,54.0,WeatherDisplay:10.37,2013-03-02 18:46:00,
2013-03-02 09:51:00,25.2,24.0,29.99,East,96,2.3,2.3,95,0.00,OVC,,0.00,35.0,WeatherDisplay:10.37,2013-03-02 18:51:00,
2013-03-02 09:56:00,25.4,24.4,29.99,East,82,2.3,2.3,96,0.00,OVC,,0.00,46.0,WeatherDisplay:10.37,2013-03-02 18:56:00,
2013-03-02 10:01:00,25.7,24.7,30.00,East,81,2.3,2.3,96,0.00,OVC,,0.00,54.0,WeatherDisplay:10.37,2013-03-02 19:01:00,
2013-03-02 10:06:00,26.3,25.3,30.00,ENE,70,2.3,2.3,96,0.00,OVC,,0.00,98.0,WeatherDisplay:10.37,2013-03-02 19:06:00,
2013-03-02 10:11:00,26.9,25.9,30.00,ENE,78,1.1,1.1,96,0.00,OVC,,0.00,63.0,WeatherDisplay:10.37,2013-03-02 19:11:00,
2013-03-02 10:16:00,27.2,26.2,30.00,ENE,78,1.1,0.0,96,0.00,OVC,,0.00,98.0,WeatherDisplay:10.37,2013-03-02 19:16:00,
2013-03-02 10:21:00,27.6,26.6,30.00,ENE,78,1.1,1.1,96,0.00,OVC,,0.00,81.0,WeatherDisplay:10.37,2013-03-02 19:21:00,
2013-03-02 10:26:00,27.9,26.9,30.00,NE,56,0.0,0.1,96,0.00,OVC,,0.00,60.0,WeatherDisplay:10.37,2013-03-02 19:26:00,
2013-03-02 10:31:00,28.1,27.1,30.00,NE,55,2.0,2.0,96,0.00,BKN,,0.00,56.0,WeatherDisplay:10.37,2013-03-02 19:31:00,
2013-03-02 10:36:00,28.4,27.4,30.00,East,87,2.3,2.3,96,0.00,BKN,,0.00,83.0,WeatherDisplay:10.37,2013-03-02 19:36:00,
2013-03-02 10:41:00,28.6,27.6,30.00,ENE,67,3.5,3.5,96,0.00,BKN,,0.00,72.0,WeatherDisplay:10.37,2013-03-02 19:41:00,
2013-03-02 10:46:00,28.8,27.8,30.00,East,80,2.3,2.3,96,0.00,BKN,,0.00,132.0,WeatherDisplay:10.37,2013-03-02 19:46:00,
2013-03-02 10:51:00,29.2,28.2,30.00,East,86,5.8,5.8,96,0.00,BKN,,0.00,127.0,WeatherDisplay:10.37,2013-03-02 19:51:00,
2013-03-02 10:56:00,29.6,28.6,30.00,East,89,2.3,2.3,96,0.00,BKN,,0.00,144.0,WeatherDisplay:10.37,2013-03-02 19:56:00,
2013-03-02 11:01:00,29.8,28.5,30.00,East,88,2.3,2.3,95,0.00,BKN,,0.00,151.0,WeatherDisplay:10.37,2013-03-02 20:01:00,
2013-03-02 11:06:00,30.1,28.8,30.00,East,88,2.3,2.3,95,0.00,BKN,,0.00,160.0,WeatherDisplay:10.37,2013-03-02 20:06:00,
2013-03-02 11:11:00,30.6,29.3,30.01,East,87,3.5,3.5,95,0.00,BKN,,0.00,193.0,WeatherDisplay:10.37,2013-03-02 20:11:00,
2013-03-02 11:16:00,30.9,29.4,30.01,ENE,74,3.5,3.5,94,0.00,BKN,,0.00,193.0,WeatherDisplay:10.37,2013-03-02 20:16:00,
2013-03-02 11:21:00,31.2,29.4,30.01,East,96,3.5,3.5,93,0.00,BKN,,0.00,151.0,WeatherDisplay:10.37,2013-03-02 20:21:00,
2013-03-02 11:26:00,31.4,29.6,30.01,NE,42,5.0,5.0,93,0.01,RA,,0.01,260.0,WeatherDisplay:10.37,2013-03-02 20:26:00,
2013-03-02 11:31:00,31.6,29.5,30.01,ENE,75,2.0,2.0,92,0.01,RA,,0.02,404.0,WeatherDisplay:10.37,2013-03-02 20:31:00,
2013-03-02 11:36:00,31.9,29.6,30.01,East,79,4.6,4.6,91,0.02,RA,,0.02,410.0,WeatherDisplay:10.37,2013-03-02 20:36:00,
2013-03-02 11:41:00,31.9,29.3,30.01,East,94,2.3,2.3,90,0.02,RA,,0.02,329.0,WeatherDisplay:10.37,2013-03-02 20:41:00,
2013-03-02 11:46:00,32.0,29.4,30.01,NE,47,3.5,3.5,90,0.03,RA,,0.03,327.0,WeatherDisplay:10.37,2013-03-02 20:46:00,
2013-03-02 11:51:00,32.3,29.7,30.01,ENE,74,4.6,4.6,90,0.03,RA,,0.03,334.0,WeatherDisplay:10.37,2013-03-02 20:51:00,
2013-03-02 11:56:00,32.5,29.6,30.01,ENE,74,4.6,4.6,89,0.03,BKN,,0.03,339.0,WeatherDisplay:10.37,2013-03-02 20:56:00,
2013-03-02 12:01:00,32.4,29.2,30.01,ENE,77,5.8,5.8,88,0.04,RA,,0.04,348.0,WeatherDisplay:10.37,2013-03-02 21:01:00,
2013-03-02 12:06:00,32.4,29.5,30.01,East,81,5.0,5.0,89,0.04,RA,,0.04,357.0,WeatherDisplay:10.37,2013-03-02 21:06:00,
2013-03-02 12:11:00,32.4,29.5,30.01,ENE,69,5.8,5.8,89,0.04,BKN,,0.04,364.0,WeatherDisplay:10.37,2013-03-02 21:11:00,
2013-03-02 12:16:00,32.5,29.6,30.01,East,79,3.5,3.5,89,0.04,OVC,,0.04,362.0,WeatherDisplay:10.37,2013-03-02 21:16:00,
2013-03-02 12:21:00,32.6,30.0,30.01,NE,36,6.0,6.0,90,0.05,RA,,0.05,366.0,WeatherDisplay:10.37,2013-03-02 21:21:00,
2013-03-02 12:26:00,32.8,29.9,30.01,East,97,5.0,5.0,89,0.04,RA,,0.05,366.0,WeatherDisplay:10.37,2013-03-02 21:26:00,
2013-03-02 12:31:00,32.9,30.0,30.01,ENE,74,6.9,6.9,89,0.04,OVC,,0.05,221.0,WeatherDisplay:10.37,2013-03-02 21:31:00,
2013-03-02 12:36:00,33.1,29.9,30.01,East,98,3.5,3.5,88,0.03,OVC,,0.05,178.0,WeatherDisplay:10.37,2013-03-02 21:36:00,
2013-03-02 12:41:00,33.2,30.0,30.01,ENE,77,4.6,4.6,88,0.04,RA,,0.06,267.0,WeatherDisplay:10.37,2013-03-02 21:41:00,
2013-03-02 12:46:00,33.4,30.2,30.01,ENE,67,3.5,3.5,88,0.03,RA,,0.06,294.0,WeatherDisplay:10.37,2013-03-02 21:46:00,
2013-03-02 12:51:00,33.5,30.3,30.01,ENE,67,6.9,6.9,88,0.03,OVC,,0.06,246.0,WeatherDisplay:10.37,2013-03-02 21:51:00,
2013-03-02 12:56:00,33.6,30.4,30.01,ENE,72,5.0,5.0,88,0.03,OVC,,0.06,346.0,WeatherDisplay:10.37,2013-03-02 21:56:00,
2013-03-02 13:01:00,33.7,30.2,30.01,NNE,31,8.1,8.1,87,0.02,OVC,,0.07,295.0,WeatherDisplay:10.37,2013-03-02 22:01:00,
2013-03-02 13:06:00,33.5,30.3,30.01,NE,48,9.2,9.2,88,0.03,RA,,0.07,425.0,WeatherDisplay:10.37,2013-03-02 22:06:00,
2013-03-02 13:11:00,33.4,30.2,30.01,ENE,77,5.0,5.0,88,0.03,RA,,0.07,216.0,WeatherDisplay:10.37,2013-03-02 22:11:00,
2013-03-02 13:16:00,33.1,29.7,30.01,East,95,6.0,6.0,87,0.03,OVC,,0.07,339.0,WeatherDisplay:10.37,2013-03-02 22:16:00,
2013-03-02 13:21:00,32.8,29.6,30.01,ENE,64,8.1,8.1,88,0.02,OVC,,0.07,190.0,WeatherDisplay:10.37,2013-03-02 22:21:00,
2013-03-02 13:26:00,32.7,29.8,30.01,ENE,77,9.2,9.2,89,0.02,OVC,,0.07,264.0,WeatherDisplay:10.37,2013-03-02 22:26:00,
2013-03-02 13:32:00,32.5,29.3,30.01,East,82,6.9,6.9,88,0.03,RA,,0.08,236.0,WeatherDisplay:10.37,2013-03-02 22:32:00,
2013-03-02 13:37:00,32.6,30.0,30.01,NE,49,6.9,6.9,90,0.03,RA,,0.08,355.0,WeatherDisplay:10.37,2013-03-02 22:37:00,
2013-03-02 13:42:00,32.9,30.3,30.01,NE,34,6.0,6.2,90,0.02,BKN,,0.08,364.0,WeatherDisplay:10.37,2013-03-02 22:42:00,
2013-03-02 13:47:00,33.0,30.1,30.01,ENE,59,9.0,9.0,89,0.02,BKN,,0.08,267.0,WeatherDisplay:10.37,2013-03-02 22:47:00,
2013-03-02 13:52:00,32.8,29.6,30.01,East,92,7.0,7.0,88,0.02,BKN,,0.08,309.0,WeatherDisplay:10.37,2013-03-02 22:52:00,
2013-03-02 13:57:00,32.5,29.3,30.01,NE,38,6.0,6.0,88,0.02,BKN,,0.08,202.0,WeatherDisplay:10.37,2013-03-02 22:57:00,
2013-03-02 14:02:00,32.2,29.3,30.01,ESE,103,6.9,6.9,89,0.01,OVC,,0.08,98.0,WeatherDisplay:10.37,2013-03-02 23:02:00,
2013-03-02 14:07:00,32.0,29.1,30.01,ENE,57,8.1,8.1,89,0.01,OVC,,0.08,283.0,WeatherDisplay:10.37,2013-03-02 23:07:00,
2013-03-02 14:12:00,32.1,29.2,30.01,ESE,109,10.4,10.4,89,0.02,RA,,0.09,278.0,WeatherDisplay:10.37,2013-03-02 23:12:00,
2013-03-02 14:17:00,32.1,29.2,30.00,ENE,74,9.2,9.2,89,0.02,RA,,0.09,260.0,WeatherDisplay:10.37,2013-03-02 23:17:00,
2013-03-02 14:22:00,32.0,29.1,30.00,ENE,66,10.4,10.4,89,0.02,OVC,,0.09,200.0,WeatherDisplay:10.37,2013-03-02 23:22:00,
2013-03-02 14:27:00,32.0,29.1,30.00,East,82,10.4,10.4,89,0.02,OVC,,0.09,216.0,WeatherDisplay:10.37,2013-03-02 23:27:00,
2013-03-02 14:32:00,32.0,29.1,30.00,NE,36,10.4,10.4,89,0.01,SCT,,0.09,169.0,WeatherDisplay:10.37,2013-03-02 23:32:00,
2013-03-02 14:37:00,32.0,29.1,29.99,NE,54,8.1,8.1,89,0.01,SCT,,0.09,113.0,WeatherDisplay:10.37,2013-03-02 23:37:00,
2013-03-02 14:42:00,31.9,28.8,29.99,ENE,63,8.1,8.1,88,0.01,SCT,,0.09,123.0,WeatherDisplay:10.37,2013-03-02 23:42:00,
2013-03-02 14:47:00,31.8,28.9,29.99,East,86,10.4,10.4,89,0.01,SCT,,0.09,107.0,WeatherDisplay:10.37,2013-03-02 23:47:00,
2013-03-02 14:52:00,31.7,28.8,29.99,ENE,75,6.9,6.9,89,0.01,SCT,,0.09,100.0,WeatherDisplay:10.37,2013-03-02 23:52:00,
2013-03-02 14:57:00,31.6,28.7,30.00,ENE,78,9.2,9.2,89,0.01,SCT,,0.09,111.0,WeatherDisplay:10.37,2013-03-02 23:57:00,
2013-03-02 15:02:00,31.6,28.7,29.99,East,90,8.1,8.1,89,0.01,SCT,,0.09,139.0,WeatherDisplay:10.37,2013-03-03 00:02:00,
2013-03-02 15:07:00,31.5,28.6,30.00,East,80,10.4,10.4,89,0.01,SCT,,0.09,160.0,WeatherDisplay:10.37,2013-03-03 00:07:00,
2013-03-02 15:12:00,31.6,28.7,30.00,ENE,76,9.2,9.2,89,0.00,SCT,,0.09,200.0,WeatherDisplay:10.37,2013-03-03 00:12:00,
2013-03-02 15:17:00,31.7,28.8,30.00,ENE,65,9.0,9.0,89,0.00,SCT,,0.09,206.0,WeatherDisplay:10.37,2013-03-03 00:17:00,
2013-03-02 15:22:00,31.8,28.9,30.00,NE,34,10.4,10.4,89,0.00,SCT,,0.09,179.0,WeatherDisplay:10.37,2013-03-03 00:22:00,
2013-03-02 15:27:00,31.7,28.8,29.99,ENE,61,10.4,10.4,89,0.00,SCT,,0.09,171.0,WeatherDisplay:10.37,2013-03-03 00:27:00,
2013-03-02 15:32:00,31.7,28.8,29.99,ENE,69,8.1,8.1,89,0.00,SCT,,0.09,178.0,WeatherDisplay:10.37,2013-03-03 00:32:00,
2013-03-02 15:37:00,31.7,28.8,29.99,NE,55,9.2,9.2,89,0.00,SCT,,0.09,165.0,WeatherDisplay:10.37,2013-03-03 00:37:00,
2013-03-02 15:42:00,31.7,28.8,29.99,NE,40,8.1,8.1,89,0.00,SCT,,0.09,158.0,WeatherDisplay:10.37,2013-03-03 00:42:00,
2013-03-02 15:47:00,31.7,28.8,29.99,NE,36,6.9,6.9,89,0.00,SCT,,0.09,137.0,WeatherDisplay:10.37,2013-03-03 00:47:00,
2013-03-02 15:52:00,31.6,28.7,29.99,East,80,5.8,5.8,89,0.00,SCT,,0.09,128.0,WeatherDisplay:10.37,2013-03-03 00:52:00,
2013-03-02 15:57:00,31.5,28.6,30.00,ENE,70,11.5,11.5,89,0.00,SCT,,0.09,116.0,WeatherDisplay:10.37,2013-03-03 00:57:00,
2013-03-02 16:02:00,31.5,28.6,29.99,ENE,74,11.5,11.5,89,0.00,OVC,,0.09,102.0,WeatherDisplay:10.37,2013-03-03 01:02:00,
2013-03-02 16:07:00,31.4,28.5,29.99,ENE,62,10.4,10.4,89,0.00,OVC,,0.09,81.0,WeatherDisplay:10.37,2013-03-03 01:07:00,
2013-03-02 16:12:00,31.2,28.3,29.98,ENE,68,11.5,11.5,89,0.00,OVC,,0.09,72.0,WeatherDisplay:10.37,2013-03-03 01:12:00,
2013-03-02 16:17:00,31.1,28.2,29.98,East,96,8.1,8.1,89,0.00,OVC,,0.09,74.0,WeatherDisplay:10.37,2013-03-03 01:17:00,
2013-03-02 16:22:00,31.0,28.1,29.99,East,92,8.1,8.1,89,0.00,OVC,,0.09,69.0,WeatherDisplay:10.37,2013-03-03 01:22:00,
2013-03-02 16:27:00,31.0,28.1,29.99,ENE,76,5.8,5.8,89,0.00,OVC,,0.09,69.0,WeatherDisplay:10.37,2013-03-03 01:27:00,
2013-03-02 16:32:00,31.0,28.1,29.98,East,84,10.4,10.4,89,0.00,OVC,,0.09,74.0,WeatherDisplay:10.37,2013-03-03 01:32:00,
2013-03-02 16:37:00,31.0,28.1,29.98,NE,34,6.0,6.0,89,0.00,OVC,,0.09,74.0,WeatherDisplay:10.37,2013-03-03 01:37:00,
2013-03-02 16:42:00,31.0,28.1,29.98,East,84,8.1,8.1,89,0.00,OVC,,0.09,72.0,WeatherDisplay:10.37,2013-03-03 01:42:00,
2013-03-02 16:47:00,31.1,28.2,29.98,East,94,11.5,11.5,89,0.00,OVC,,0.09,69.0,WeatherDisplay:10.37,2013-03-03 01:47:00,
2013-03-02 16:52:00,31.1,28.2,29.98,ENE,72,3.5,3.5,89,0.00,OVC,,0.09,76.0,WeatherDisplay:10.37,2013-03-03 01:52:00,
2013-03-02 16:57:00,31.2,28.3,29.98,ENE,58,10.4,10.4,89,0.00,OVC,,0.09,79.0,WeatherDisplay:10.37,2013-03-03 01:57:00,
2013-03-02 17:02:00,31.2,28.3,29.98,NNE,28,10.4,10.4,89,0.00,OVC,,0.09,76.0,WeatherDisplay:10.37,2013-03-03 02:02:00,
2013-03-02 17:07:00,31.1,28.2,29.98,NE,46,4.6,4.6,89,0.00,OVC,,0.09,69.0,WeatherDisplay:10.37,2013-03-03 02:07:00,
2013-03-02 17:12:00,31.0,28.1,29.98,ENE,78,9.2,9.2,89,0.00,OVC,,0.09,65.0,WeatherDisplay:10.37,2013-03-03 02:12:00,
2013-03-02 17:17:00,30.9,28.3,29.99,ENE,74,5.8,5.8,90,0.00,OVC,,0.09,62.0,WeatherDisplay:10.37,2013-03-03 02:17:00,
2013-03-02 17:22:00,30.8,28.2,29.99,East,86,8.1,8.1,90,0.00,OVC,,0.09,51.0,WeatherDisplay:10.37,2013-03-03 02:22:00,
2013-03-02 17:27:00,30.8,27.9,29.99,East,89,5.8,5.8,89,0.00,OVC,,0.09,46.0,WeatherDisplay:10.37,2013-03-03 02:27:00,
2013-03-02 17:32:00,30.7,27.8,29.99,ENE,72,8.0,8.0,89,0.00,OVC,,0.09,42.0,WeatherDisplay:10.37,2013-03-03 02:32:00,
2013-03-02 17:37:00,30.6,27.7,29.99,East,79,5.8,5.8,89,0.00,OVC,,0.09,39.0,WeatherDisplay:10.37,2013-03-03 02:37:00,
2013-03-02 17:42:00,30.5,27.6,29.99,ENE,73,5.0,5.0,89,0.00,OVC,,0.09,35.0,WeatherDisplay:10.37,2013-03-03 02:42:00,
2013-03-02 17:47:00,30.5,27.6,29.99,East,87,6.9,6.9,89,0.00,OVC,,0.09,33.0,WeatherDisplay:10.37,2013-03-03 02:47:00,
2013-03-02 17:52:00,30.3,27.4,29.99,ENE,73,3.5,3.5,89,0.00,OVC,,0.09,28.0,WeatherDisplay:10.37,2013-03-03 02:52:00,
2013-03-02 17:57:00,30.3,27.7,29.99,East,85,3.5,3.5,90,0.00,OVC,,0.09,25.0,WeatherDisplay:10.37,2013-03-03 02:57:00,
2013-03-02 18:02:00,30.2,27.6,29.99,ENE,77,4.6,4.6,90,0.00,BKN,,0.09,21.0,WeatherDisplay:10.37,2013-03-03 03:02:00,
2013-03-02 18:07:00,30.2,27.6,29.99,ENE,66,4.6,4.6,90,0.00,BKN,,0.09,18.0,WeatherDisplay:10.37,2013-03-03 03:07:00,
2013-03-02 18:12:00,30.2,27.9,30.00,NE,38,5.8,5.8,91,0.00,BKN,,0.09,14.0,WeatherDisplay:10.37,2013-03-03 03:12:00,
2013-03-02 18:17:00,30.2,27.9,30.00,East,88,5.8,5.8,91,0.00,BKN,,0.09,11.0,WeatherDisplay:10.37,2013-03-03 03:17:00,
2013-03-02 18:22:00,30.2,27.9,30.00,East,84,9.2,9.2,91,0.00,BKN,,0.09,7.0,WeatherDisplay:10.37,2013-03-03 03:22:00,
2013-03-02 18:27:00,30.2,27.9,30.00,ENE,63,3.5,3.5,91,0.00,BKN,,0.09,5.0,WeatherDisplay:10.37,2013-03-03 03:27:00,
2013-03-02 18:32:00,30.2,27.9,29.99,East,96,6.9,6.9,91,0.00,BKN,,0.09,0.0,WeatherDisplay:10.37,2013-03-03 03:32:00,
2013-03-02 18:37:00,30.2,27.9,29.99,East,82,8.1,8.1,91,0.00,BKN,,0.09,0.0,WeatherDisplay:10.37,2013-03-03 03:37:00,
2013-03-02 18:42:00,30.2,27.9,30.00,ENE,61,5.8,5.8,91,0.00,BKN,,0.09,0.0,WeatherDisplay:10.37,2013-03-03 03:42:00,
2013-03-02 18:47:00,30.1,27.8,30.00,NE,52,11.0,11.0,91,0.00,BKN,,0.09,0.0,WeatherDisplay:10.37,2013-03-03 03:47:00,
2013-03-02 18:52:00,30.1,27.8,30.00,ENE,63,11.5,11.5,91,0.00,BKN,,0.09,0.0,WeatherDisplay:10.37,2013-03-03 03:52:00,
2013-03-02 18:57:00,30.1,27.8,30.00,ENE,75,9.2,9.2,91,0.00,BKN,,0.09,0.0,WeatherDisplay:10.37,2013-03-03 03:57:00,
2013-03-02 19:02:00,30.0,27.7,30.00,ENE,62,10.4,10.4,91,0.00,OVC,,0.09,0.0,WeatherDisplay:10.37,2013-03-03 04:02:00,
2013-03-02 19:07:00,30.1,27.8,30.00,ENE,64,10.4,10.4,91,0.00,OVC,,0.09,0.0,WeatherDisplay:10.37,2013-03-03 04:07:00,
2013-03-02 19:12:00,30.1,27.8,30.00,East,94,9.0,9.0,91,0.00,OVC,,0.09,0.0,WeatherDisplay:10.37,2013-03-03 04:12:00,
2013-03-02 19:17:00,30.1,27.8,30.00,East,88,11.5,11.5,91,0.00,OVC,,0.09,0.0,WeatherDisplay:10.37,2013-03-03 04:17:00,
2013-03-02 19:22:00,30.0,27.7,30.00,ESE,105,8.1,8.1,91,0.00,OVC,,0.09,0.0,WeatherDisplay:10.37,2013-03-03 04:22:00,
2013-03-02 19:27:00,30.0,27.4,30.01,East,80,7.0,7.0,90,0.00,OVC,,0.09,0.0,WeatherDisplay:10.37,2013-03-03 04:27:00,
2013-03-02 19:32:00,29.9,27.3,30.01,ENE,63,8.1,8.1,90,0.00,OVC,,0.09,0.0,WeatherDisplay:10.37,2013-03-03 04:32:00,
2013-03-02 19:37:00,29.8,27.5,30.01,ENE,61,6.9,6.9,91,0.00,OVC,,0.09,0.0,WeatherDisplay:10.37,2013-03-03 04:37:00,
2013-03-02 19:42:00,29.8,27.5,30.01,ENE,63,8.1,8.1,91,0.00,OVC,,0.09,0.0,WeatherDisplay:10.37,2013-03-03 04:42:00,
2013-03-02 19:47:00,29.7,27.4,30.01,ENE,78,6.9,6.9,91,0.00,OVC,,0.09,0.0,WeatherDisplay:10.37,2013-03-03 04:47:00,
2013-03-02 19:52:00,29.6,27.3,30.01,ENE,76,11.5,11.5,91,0.00,OVC,,0.09,0.0,WeatherDisplay:10.37,2013-03-03 04:52:00,
2013-03-02 19:57:00,29.4,27.1,30.01,ENE,63,9.2,9.2,91,0.00,OVC,,0.09,0.0,WeatherDisplay:10.37,2013-03-03 04:57:00,
2013-03-02 20:00:00,29.3,27.0,30.01,ENE,72,9.2,9.2,91,0.00,OVC,,0.09,0.0,WeatherDisplay:10.37,2013-03-03 05:00:00,
2013-03-02 20:05:00,29.2,26.9,30.01,East,82,11.5,11.5,91,0.00,BKN,,0.09,0.0,WeatherDisplay:10.37,2013-03-03 05:05:00,
2013-03-02 20:10:00,29.0,26.7,30.02,ENE,63,8.0,8.0,91,0.00,BKN,,0.09,0.0,WeatherDisplay:10.37,2013-03-03 05:10:00,
2013-03-02 20:15:00,28.9,26.6,30.02,ENE,60,7.0,7.0,91,0.00,BKN,,0.09,0.0,WeatherDisplay:10.37,2013-03-03 05:15:00,
2013-03-02 20:20:00,28.7,26.4,30.02,ENE,74,9.2,9.2,91,0.00,BKN,,0.09,0.0,WeatherDisplay:10.37,2013-03-03 05:20:00,
2013-03-02 20:25:00,28.6,26.3,30.02,East,92,6.9,6.9,91,0.00,BKN,,0.09,0.0,WeatherDisplay:10.37,2013-03-03 05:25:00,
2013-03-02 20:30:00,28.4,26.4,30.02,ENE,64,9.2,9.2,92,0.00,BKN,,0.09,0.0,WeatherDisplay:10.37,2013-03-03 05:30:00,
2013-03-02 20:35:00,28.3,26.3,30.02,ENE,73,8.1,8.1,92,0.00,BKN,,0.09,0.0,WeatherDisplay:10.37,2013-03-03 05:35:00,
2013-03-02 20:40:00,28.2,26.2,30.02,East,80,6.9,6.9,92,0.00,BKN,,0.09,0.0,WeatherDisplay:10.37,2013-03-03 05:40:00,
2013-03-02 20:45:00,28.1,26.1,30.02,East,84,11.5,11.5,92,0.00,BKN,,0.09,0.0,WeatherDisplay:10.37,2013-03-03 05:45:00,
2013-03-02 20:50:00,28.0,26.0,30.02,East,83,6.9,6.9,92,0.00,BKN,,0.09,0.0,WeatherDisplay:10.37,2013-03-03 05:50:00,
2013-03-02 20:55:00,27.9,26.1,30.02,East,98,6.9,6.9,93,0.00,BKN,,0.09,0.0,WeatherDisplay:10.37,2013-03-03 05:55:00,
2013-03-02 21:00:00,27.9,26.1,30.02,East,81,9.2,9.2,93,0.00,BKN,,0.09,0.0,WeatherDisplay:10.37,2013-03-03 06:00:00,
2013-03-02 21:05:00,27.9,26.1,30.02,NE,55,8.1,8.1,93,0.00,CLR,,0.09,0.0,WeatherDisplay:10.37,2013-03-03 06:05:00,
2013-03-02 21:10:00,27.9,26.1,30.02,East,96,6.9,6.9,93,0.00,CLR,,0.09,0.0,WeatherDisplay:10.37,2013-03-03 06:10:00,
2013-03-02 21:15:00,28.0,26.2,30.02,ENE,65,8.1,8.1,93,0.00,CLR,,0.09,0.0,WeatherDisplay:10.37,2013-03-03 06:15:00,
2013-03-02 21:20:00,28.0,26.2,30.02,ENE,76,6.0,6.0,93,0.00,CLR,,0.09,0.0,WeatherDisplay:10.37,2013-03-03 06:20:00,
2013-03-02 21:25:00,28.0,26.2,30.03,NE,42,8.1,8.1,93,0.00,CLR,,0.09,0.0,WeatherDisplay:10.37,2013-03-03 06:25:00,
2013-03-02 21:30:00,28.1,26.3,30.02,East,86,10.4,10.4,93,0.00,CLR,,0.09,0.0,WeatherDisplay:10.37,2013-03-03 06:30:00,
2013-03-02 21:35:00,28.1,26.3,30.02,East,97,8.1,8.1,93,0.00,CLR,,0.09,0.0,WeatherDisplay:10.37,2013-03-03 06:35:00,
2013-03-02 21:40:00,28.0,26.2,30.02,East,80,8.1,8.1,93,0.00,CLR,,0.09,0.0,WeatherDisplay:10.37,2013-03-03 06:40:00,
2013-03-02 21:45:00,28.0,26.2,30.02,ENE,58,9.2,9.2,93,0.00,CLR,,0.09,0.0,WeatherDisplay:10.37,2013-03-03 06:45:00,
2013-03-02 21:50:00,28.0,26.2,30.02,ENE,57,9.2,9.2,93,0.00,CLR,,0.09,0.0,WeatherDisplay:10.37,2013-03-03 06:50:00,
2013-03-02 21:55:00,28.0,26.0,30.02,ENE,68,6.9,6.9,92,0.00,CLR,,0.09,0.0,WeatherDisplay:10.37,2013-03-03 06:55:00,
2013-03-02 22:00:00,27.9,25.9,30.02,ENE,68,8.1,8.1,92,0.00,CLR,,0.09,0.0,WeatherDisplay:10.37,2013-03-03 07:00:00,
2013-03-02 22:05:00,27.9,25.9,30.03,ENE,78,6.9,6.9,92,0.00,CLR,,0.09,0.0,WeatherDisplay:10.37,2013-03-03 07:05:00,
2013-03-02 22:10:00,27.8,25.8,30.03,East,96,6.9,6.9,92,0.00,CLR,,0.09,0.0,WeatherDisplay:10.37,2013-03-03 07:10:00,
2013-03-02 22:15:00,27.8,25.8,30.03,East,86,6.9,6.9,92,0.00,CLR,,0.09,0.0,WeatherDisplay:10.37,2013-03-03 07:15:00,
2013-03-02 22:20:00,27.8,25.8,30.03,ENE,58,8.1,8.1,92,0.00,CLR,,0.09,0.0,WeatherDisplay:10.37,2013-03-03 07:20:00,
2013-03-02 22:25:00,27.7,25.7,30.03,NNE,33,9.2,9.2,92,0.00,CLR,,0.09,0.0,WeatherDisplay:10.37,2013-03-03 07:25:00,
2013-03-02 22:30:00,27.7,25.7,30.04,NE,50,5.8,5.8,92,0.00,CLR,,0.09,0.0,WeatherDisplay:10.37,2013-03-03 07:30:00,
2013-03-02 22:35:00,27.7,25.7,30.04,East,80,9.2,9.2,92,0.00,CLR,,0.09,0.0,WeatherDisplay:10.37,2013-03-03 07:35:00,
2013-03-02 22:40:00,27.6,25.6,30.04,East,97,6.9,6.9,92,0.00,CLR,,0.09,0.0,WeatherDisplay:10.37,2013-03-03 07:40:00,
2013-03-02 22:45:00,27.5,25.5,30.04,East,90,8.0,8.0,92,0.00,CLR,,0.09,0.0,WeatherDisplay:10.37,2013-03-03 07:45:00,
2013-03-02 22:50:00,27.4,25.4,30.03,ENE,57,4.6,4.6,92,0.00,CLR,,0.09,0.0,WeatherDisplay:10.37,2013-03-03 07:50:00,
2013-03-02 22:55:00,27.3,25.3,30.03,ENE,62,9.2,9.2,92,0.00,CLR,,0.09,0.0,WeatherDisplay:10.37,2013-03-03 07:55:00,
2013-03-02 23:00:00,27.2,25.2,30.03,NE,53,8.1,8.1,92,0.00,CLR,,0.09,0.0,WeatherDisplay:10.37,2013-03-03 08:00:00,
2013-03-02 23:05:00,27.2,25.4,30.03,ENE,66,11.5,11.5,93,0.00,CLR,,0.09,0.0,WeatherDisplay:10.37,2013-03-03 08:05:00,
2013-03-02 23:10:00,27.4,25.6,30.04,East,79,13.8,13.8,93,0.00,CLR,,0.09,0.0,WeatherDisplay:10.37,2013-03-03 08:10:00,
2013-03-02 23:15:00,27.5,25.7,30.04,ENE,78,11.5,11.5,93,0.00,CLR,,0.09,0.0,WeatherDisplay:10.37,2013-03-03 08:15:00,
2013-03-02 23:20:00,27.6,25.6,30.04,ENE,67,8.1,8.1,92,0.00,CLR,,0.09,0.0,WeatherDisplay:10.37,2013-03-03 08:20:00,
2013-03-02 23:25:00,27.5,25.5,30.04,ENE,65,9.2,9.2,92,0.00,CLR,,0.09,0.0,WeatherDisplay:10.37,2013-03-03 08:25:00,
2013-03-02 23:30:00,27.5,25.5,30.04,ENE,72,9.2,9.2,92,0.00,CLR,,0.09,0.0,WeatherDisplay:10.37,2013-03-03 08:30:00,
2013-03-02 23:35:00,27.5,25.5,30.04,NE,44,9.2,9.2,92,0.00,CLR,,0.09,0.0,WeatherDisplay:10.37,2013-03-03 08:35:00,
2013-03-02 23:40:00,27.5,25.5,30.04,ENE,69,9.2,9.2,92,0.00,CLR,,0.09,0.0,WeatherDisplay:10.37,2013-03-03 08:40:00,
2013-03-02 23:45:00,27.6,25.6,30.04,NE,44,8.1,8.1,92,0.00,CLR,,0.09,0.0,WeatherDisplay:10.37,2013-03-03 08:45:00,
2013-03-02 23:50:00,27.7,25.7,30.04,ENE,69,9.2,9.2,92,0.00,CLR,,0.09,0.0,WeatherDisplay:10.37,2013-03-03 08:50:00,
2013-03-02 23:55:00,27.8,25.8,30.04,East,94,4.6,4.8,92,0.00,CLR,,0.09,0.0,WeatherDisplay:10.37,2013-03-03 08:55:00,